sensor_id;sensor_type;location;lat;lon;timestamp;pressure;altitude;pressure_sealevel;temperature;humidity
65054;BME280;51639;47.828;35.038;2023-12-04T00:08:10;100536.34;;;7.61;69.41
65054;BME280;51639;47.828;35.038;2023-12-04T00:23:13;100547.94;;;7.65;70.32
65054;BME280;51639;47.828;35.038;2023-12-04T00:38:15;100580.34;;;7.65;69.42
65054;BME280;51639;47.828;35.038;2023-12-04T00:53:17;100588.88;;;7.74;67.50
65054;BME280;51639;47.828;35.038;2023-12-04T01:08:20;100545.63;;;7.64;67.61
65054;BME280;51639;47.828;35.038;2023-12-04T01:23:22;100552.16;;;7.20;67.59
65054;BME280;51639;47.828;35.038;2023-12-04T01:38:24;100617.38;;;7.33;67.97
65054;BME280;51639;47.828;35.038;2023-12-04T01:53:26;100626.66;;;7.46;67.42
65054;BME280;51639;47.828;35.038;2023-12-04T02:08:29;100602.72;;;7.41;67.87
65054;BME280;51639;47.828;35.038;2023-12-04T02:23:32;100569.53;;;7.37;70.56
65054;BME280;51639;47.828;35.038;2023-12-04T02:38:34;100635.13;;;7.30;70.66
65054;BME280;51639;47.828;35.038;2023-12-04T02:53:36;100686.13;;;7.49;69.36
65054;BME280;51639;47.828;35.038;2023-12-04T03:08:38;100669.06;;;7.24;69.39
65054;BME280;51639;47.828;35.038;2023-12-04T03:23:40;100684.50;;;7.34;67.93
65054;BME280;51639;47.828;35.038;2023-12-04T03:38:42;100685.28;;;7.24;68.10
65054;BME280;51639;47.828;35.038;2023-12-04T03:53:44;100722.22;;;7.09;68.04
65054;BME280;51639;47.828;35.038;2023-12-04T04:08:46;100719.16;;;7.11;67.61
65054;BME280;51639;47.828;35.038;2023-12-04T04:23:48;100746.25;;;7.36;67.66
65054;BME280;51639;47.828;35.038;2023-12-04T04:38:50;100748.25;;;7.53;67.38
65054;BME280;51639;47.828;35.038;2023-12-04T04:53:52;100770.94;;;7.31;66.75
65054;BME280;51639;47.828;35.038;2023-12-04T05:08:54;100783.72;;;6.72;65.07
65054;BME280;51639;47.828;35.038;2023-12-04T05:23:56;100795.19;;;6.62;64.63
65054;BME280;51639;47.828;35.038;2023-12-04T05:38:58;100804.97;;;6.77;64.12
65054;BME280;51639;47.828;35.038;2023-12-04T05:54:02;100815.25;;;6.61;63.85
65054;BME280;51639;47.828;35.038;2023-12-04T06:09:04;100823.34;;;6.61;62.62
65054;BME280;51639;47.828;35.038;2023-12-04T06:24:07;100842.09;;;6.94;62.63
65054;BME280;51639;47.828;35.038;2023-12-04T06:39:11;100854.03;;;6.93;61.76
65054;BME280;51639;47.828;35.038;2023-12-04T06:54:13;100881.03;;;6.93;61.40
65054;BME280;51639;47.828;35.038;2023-12-04T07:09:16;100890.28;;;6.92;61.96
65054;BME280;51639;47.828;35.038;2023-12-04T07:24:22;100899.53;;;6.95;60.45
65054;BME280;51639;47.828;35.038;2023-12-04T07:39:25;100902.78;;;7.14;61.28
65054;BME280;51639;47.828;35.038;2023-12-04T07:54:27;100934.38;;;7.10;60.21
65054;BME280;51639;47.828;35.038;2023-12-04T08:09:30;100942.19;;;7.23;59.71
65054;BME280;51639;47.828;35.038;2023-12-04T08:24:32;100935.25;;;7.22;58.19
65054;BME280;51639;47.828;35.038;2023-12-04T08:39:34;100925.31;;;7.40;59.22
65054;BME280;51639;47.828;35.038;2023-12-04T08:54:39;100927.00;;;7.62;57.32
65054;BME280;51639;47.828;35.038;2023-12-04T09:09:43;100914.91;;;7.42;58.13
65054;BME280;51639;47.828;35.038;2023-12-04T09:24:46;100899.97;;;7.55;58.23
65054;BME280;51639;47.828;35.038;2023-12-04T09:39:48;100912.28;;;7.49;59.11
65054;BME280;51639;47.828;35.038;2023-12-04T09:54:51;100931.44;;;7.30;61.42
65054;BME280;51639;47.828;35.038;2023-12-04T10:09:53;100931.44;;;7.30;62.76
65054;BME280;51639;47.828;35.038;2023-12-04T10:24:55;100923.34;;;7.30;63.40
65054;BME280;51639;47.828;35.038;2023-12-04T10:39:57;100932.13;;;7.19;60.34
65054;BME280;51639;47.828;35.038;2023-12-04T10:54:59;100951.53;;;6.88;59.08
65054;BME280;51639;47.828;35.038;2023-12-04T11:10:06;100957.41;;;6.97;57.45
65054;BME280;51639;47.828;35.038;2023-12-04T11:25:16;100971.41;;;7.10;58.32
65054;BME280;51639;47.828;35.038;2023-12-04T11:40:19;100988.47;;;6.77;58.41
65054;BME280;51639;47.828;35.038;2023-12-04T11:55:23;100972.72;;;6.86;57.73
65054;BME280;51639;47.828;35.038;2023-12-04T12:10:27;100964.44;;;7.09;55.49
65054;BME280;51639;47.828;35.038;2023-12-04T12:25:29;100985.66;;;6.66;56.28
65054;BME280;51639;47.828;35.038;2023-12-04T12:40:32;100992.63;;;6.71;56.02
65054;BME280;51639;47.828;35.038;2023-12-04T12:55:38;101017.41;;;6.80;57.09
65054;BME280;51639;47.828;35.038;2023-12-04T13:10:41;101046.22;;;6.72;58.53
65054;BME280;51639;47.828;35.038;2023-12-04T13:25:44;101056.50;;;6.60;60.39
65054;BME280;51639;47.828;35.038;2023-12-04T13:40:46;101070.19;;;6.44;61.35
65054;BME280;51639;47.828;35.038;2023-12-04T13:56:01;101078.47;;;6.28;60.04
65054;BME280;51639;47.828;35.038;2023-12-04T14:11:04;101097.09;;;6.40;57.78
65054;BME280;51639;47.828;35.038;2023-12-04T14:26:06;101103.88;;;6.27;57.87
65054;BME280;51639;47.828;35.038;2023-12-04T14:41:08;101130.16;;;6.07;58.15
65054;BME280;51639;47.828;35.038;2023-12-04T14:56:13;101126.34;;;5.86;59.43
65054;BME280;51639;47.828;35.038;2023-12-04T15:11:33;101141.41;;;5.67;58.99
65054;BME280;51639;47.828;35.038;2023-12-04T15:26:54;101140.03;;;5.77;59.17
65054;BME280;51639;47.828;35.038;2023-12-04T15:41:56;101161.81;;;5.68;58.94
65054;BME280;51639;47.828;35.038;2023-12-04T15:57:00;101184.66;;;5.74;59.09
65054;BME280;51639;47.828;35.038;2023-12-04T16:12:03;101193.75;;;5.66;59.70
65054;BME280;51639;47.828;35.038;2023-12-04T16:27:05;101190.94;;;5.59;61.18
65054;BME280;51639;47.828;35.038;2023-12-04T16:42:08;101195.25;;;5.64;60.98
65054;BME280;51639;47.828;35.038;2023-12-04T16:57:10;101190.50;;;5.57;57.40
65054;BME280;51639;47.828;35.038;2023-12-04T17:12:12;101190.56;;;5.61;57.78
65054;BME280;51639;47.828;35.038;2023-12-04T17:27:16;101210.91;;;5.58;58.89
65054;BME280;51639;47.828;35.038;2023-12-04T17:42:18;101215.81;;;5.53;58.69
65054;BME280;51639;47.828;35.038;2023-12-04T17:57:20;101251.41;;;5.62;59.67
65054;BME280;51639;47.828;35.038;2023-12-04T18:12:23;101240.34;;;5.47;59.43
65054;BME280;51639;47.828;35.038;2023-12-04T18:27:25;101231.78;;;5.42;59.65
65054;BME280;51639;47.828;35.038;2023-12-04T18:42:27;101242.25;;;5.28;59.59
65054;BME280;51639;47.828;35.038;2023-12-04T18:57:30;101278.41;;;5.27;58.57
65054;BME280;51639;47.828;35.038;2023-12-04T19:12:32;101276.56;;;5.11;59.58
65054;BME280;51639;47.828;35.038;2023-12-04T19:27:35;101300.19;;;5.02;58.02
65054;BME280;51639;47.828;35.038;2023-12-04T19:42:37;101321.41;;;4.88;58.76
65054;BME280;51639;47.828;35.038;2023-12-04T19:57:40;101329.53;;;5.07;59.25
65054;BME280;51639;47.828;35.038;2023-12-04T20:12:42;101332.81;;;5.17;59.39
65054;BME280;51639;47.828;35.038;2023-12-04T20:27:44;101329.69;;;4.99;58.44
65054;BME280;51639;47.828;35.038;2023-12-04T20:42:46;101340.28;;;5.07;59.12
65054;BME280;51639;47.828;35.038;2023-12-04T20:57:48;101337.16;;;5.05;58.21
65054;BME280;51639;47.828;35.038;2023-12-04T21:12:50;101325.66;;;4.89;58.22
65054;BME280;51639;47.828;35.038;2023-12-04T21:27:52;101336.16;;;5.29;57.39
65054;BME280;51639;47.828;35.038;2023-12-04T21:42:55;101338.91;;;5.33;57.09
65054;BME280;51639;47.828;35.038;2023-12-04T21:57:57;101340.75;;;5.29;57.25
65054;BME280;51639;47.828;35.038;2023-12-04T22:12:59;101343.56;;;5.17;57.06
65054;BME280;51639;47.828;35.038;2023-12-04T22:28:02;101332.25;;;5.46;58.04
65054;BME280;51639;47.828;35.038;2023-12-04T22:43:04;101332.56;;;5.41;58.36
65054;BME280;51639;47.828;35.038;2023-12-04T22:58:06;101328.88;;;5.49;57.78
65054;BME280;51639;47.828;35.038;2023-12-04T23:13:08;101333.00;;;5.62;57.38
65054;BME280;51639;47.828;35.038;2023-12-04T23:28:10;101356.22;;;5.70;56.77
65054;BME280;51639;47.828;35.038;2023-12-04T23:43:13;101350.00;;;5.66;58.04
65054;BME280;51639;47.828;35.038;2023-12-04T23:58:16;101376.09;;;5.62;58.52
